Time;durP1;ratioP1;P1;durP2;ratioP2;P2;SDS_P1;SDS_P2;PMS_P1;PMS_P2;Temp;Humidity;BMP_temperature;BMP_pressure;BME280_temperature;BME280_humidity;BME280_pressure;Samples;Min_cycle;Max_cycle;Signal;HPM_P1;HPM_P2
2024/02/26 00:01:34;;;;;;;;;;;;;;;5.97;90.00;100985.04;108141;1254;71457;-65
2024/02/26 00:04:02;;;;;;;;;;;;;;;5.98;90.00;100987.43;108058;1257;61116;-65
2024/02/26 00:06:30;;;;;;;;;;;;;;;5.98;89.90;100982.50;108093;1254;61081;-65
2024/02/26 00:08:58;;;;;;;;;;;;;;;5.95;89.88;100977.96;108137;1254;73460;-65
2024/02/26 00:11:26;;;;;;;;;;;;;;;5.91;89.77;100973.84;108121;1254;71710;-66
2024/02/26 00:13:54;;;;;;;;;;;;;;;5.86;88.94;100964.56;107908;1260;72711;-64
2024/02/26 00:16:21;;;;;;;;;;;;;;;5.80;88.28;100963.31;108006;1254;60984;-65
2024/02/26 00:18:49;;;;;;;;;;;;;;;5.74;87.65;100963.31;108066;1254;60996;-65
2024/02/26 00:21:17;;;;;;;;;;;;;;;5.70;87.36;100956.29;108090;1254;74614;-64
2024/02/26 00:23:45;;;;;;;;;;;;;;;5.68;87.30;100956.38;108104;1254;73780;-64
2024/02/26 00:26:13;;;;;;;;;;;;;;;5.61;87.68;100958.79;108010;1254;72675;-66
2024/02/26 00:28:40;;;;;;;;;;;;;;;5.56;88.12;100959.36;108065;1253;61136;-66
2024/02/26 00:31:08;;;;;;;;;;;;;;;5.46;88.76;100954.64;107919;1254;61087;-65
2024/02/26 00:33:36;;;;;;;;;;;;;;;5.35;89.44;100947.95;108039;1254;73358;-67
2024/02/26 00:36:04;;;;;;;;;;;;;;;5.24;90.10;100941.45;108063;1254;71493;-66
2024/02/26 00:38:32;;;;;;;;;;;;;;;5.15;90.69;100945.73;108145;1258;72623;-65
2024/02/26 00:41:00;;;;;;;;;;;;;;;5.05;91.43;100942.72;108181;1254;61298;-65
2024/02/26 00:43:28;;;;;;;;;;;;;;;4.97;92.03;100939.33;108145;1258;61484;-65
2024/02/26 00:45:55;;;;;;;;;;;;;;;4.91;92.66;100932.67;108182;1254;73375;-66
2024/02/26 00:48:25;;;;;;;;;;;;;;;4.87;92.99;100929.27;108122;1254;72731;-65
2024/02/26 00:50:53;;;;;;;;;;;;;;;4.81;93.27;100931.63;108163;1254;71063;-64
2024/02/26 00:53:21;;;;;;;;;;;;;;;4.78;93.63;100935.09;108163;1258;61187;-65
2024/02/26 00:55:50;;;;;;;;;;;;;;;4.76;93.93;100931.31;108130;1254;61081;-65
2024/02/26 00:58:18;;;;;;;;;;;;;;;4.73;94.01;100927.77;108177;1254;74715;-65
2024/02/26 01:00:46;;;;;;;;;;;;;;;4.74;94.28;100926.52;108181;1253;73969;-65
2024/02/26 01:03:14;;;;;;;;;;;;;;;4.76;94.56;100923.80;108124;1257;72671;-66
2024/02/26 01:05:41;;;;;;;;;;;;;;;4.77;94.61;100929.36;108139;1256;59960;-66
2024/02/26 01:08:09;;;;;;;;;;;;;;;4.77;94.64;100925.52;108104;1254;61094;-66
2024/02/26 01:10:37;;;;;;;;;;;;;;;4.77;94.61;100930.63;108085;1254;74705;-66
2024/02/26 01:13:04;;;;;;;;;;;;;;;4.78;94.58;100938.44;108058;1254;71581;-66
2024/02/26 01:15:32;;;;;;;;;;;;;;;4.81;94.47;100940.70;107914;1254;72605;-67
2024/02/26 01:18:00;;;;;;;;;;;;;;;4.83;94.20;100932.25;107979;1254;61301;-66
2024/02/26 01:20:28;;;;;;;;;;;;;;;4.85;93.82;100938.13;108126;1254;61169;-66
2024/02/26 01:22:55;;;;;;;;;;;;;;;4.88;93.49;100935.88;108139;1253;73642;-66
2024/02/26 01:25:23;;;;;;;;;;;;;;;4.91;93.24;100941.19;108149;1254;72712;-64
2024/02/26 01:27:51;;;;;;;;;;;;;;;4.93;93.01;100936.48;108163;1254;70900;-67
2024/02/26 01:30:18;;;;;;;;;;;;;;;4.93;92.69;100937.18;108088;1254;61103;-66
2024/02/26 01:32:46;;;;;;;;;;;;;;;4.95;92.50;100931.20;108113;1253;61080;-65
2024/02/26 01:35:14;;;;;;;;;;;;;;;4.95;92.20;100929.77;108071;1254;73565;-65
2024/02/26 01:37:42;;;;;;;;;;;;;;;4.96;91.94;100920.69;108122;1254;72509;-67
2024/02/26 01:40:10;;;;;;;;;;;;;;;4.97;91.86;100919.33;108097;1254;70129;-68
2024/02/26 01:42:38;;;;;;;;;;;;;;;4.97;91.70;100920.02;108046;1254;61259;-66
2024/02/26 01:45:07;;;;;;;;;;;;;;;4.95;91.53;100920.41;108014;1254;61218;-66
2024/02/26 01:47:37;;;;;;;;;;;;;;;4.93;91.46;100919.55;107994;1253;73543;-66
2024/02/26 01:50:05;;;;;;;;;;;;;;;4.92;91.24;100917.08;108025;1254;72802;-65
2024/02/26 01:52:33;;;;;;;;;;;;;;;4.89;91.18;100916.77;107958;1254;72666;-66
2024/02/26 01:55:01;;;;;;;;;;;;;;;4.87;91.07;100912.88;108112;1255;61106;-66
2024/02/26 01:57:28;;;;;;;;;;;;;;;4.85;91.14;100907.25;107990;1254;61110;-65
2024/02/26 01:59:56;;;;;;;;;;;;;;;4.84;91.19;100900.43;108072;1254;73693;-66
2024/02/26 02:02:24;;;;;;;;;;;;;;;4.83;91.33;100893.13;107890;1254;72755;-65
2024/02/26 02:04:51;;;;;;;;;;;;;;;4.81;91.40;100890.16;108029;1254;71665;-65
2024/02/26 02:07:20;;;;;;;;;;;;;;;4.80;91.45;100894.28;108048;1254;61352;-67
2024/02/26 02:09:47;;;;;;;;;;;;;;;4.79;91.49;100887.16;108150;1253;61369;-67
2024/02/26 02:12:15;;;;;;;;;;;;;;;4.77;91.65;100880.71;107865;1254;73452;-65
2024/02/26 02:14:43;;;;;;;;;;;;;;;4.75;91.68;100881.58;107986;1254;71154;-65
2024/02/26 02:17:11;;;;;;;;;;;;;;;4.73;91.65;100881.78;108070;1254;71207;-65
2024/02/26 02:19:39;;;;;;;;;;;;;;;4.73;91.58;100885.73;108068;1254;60888;-65
2024/02/26 02:22:07;;;;;;;;;;;;;;;4.73;91.65;100894.20;107995;1253;61179;-65
2024/02/26 02:24:34;;;;;;;;;;;;;;;4.73;91.60;100896.91;108066;1254;73705;-66
2024/02/26 02:27:02;;;;;;;;;;;;;;;4.74;91.50;100905.84;108129;1254;72861;-65
2024/02/26 02:29:30;;;;;;;;;;;;;;;4.74;91.41;100902.79;108141;1254;72361;-66
2024/02/26 02:31:58;;;;;;;;;;;;;;;4.75;91.40;100904.49;108171;1259;61298;-66
2024/02/26 02:34:26;;;;;;;;;;;;;;;4.73;91.21;100906.45;108190;1253;60994;-64
2024/02/26 02:36:54;;;;;;;;;;;;;;;4.73;91.30;100905.30;108021;1253;74762;-66
2024/02/26 02:39:22;;;;;;;;;;;;;;;4.71;91.35;100902.84;108085;1254;71577;-65
2024/02/26 02:41:50;;;;;;;;;;;;;;;4.70;91.43;100900.52;108059;1254;72742;-65
2024/02/26 02:44:17;;;;;;;;;;;;;;;4.70;91.48;100904.42;108011;1254;60675;-66
2024/02/26 02:46:45;;;;;;;;;;;;;;;4.69;91.62;100900.06;108013;1254;61090;-65
2024/02/26 02:49:14;;;;;;;;;;;;;;;4.69;91.70;100896.52;108083;1254;73424;-66
2024/02/26 02:51:41;;;;;;;;;;;;;;;4.69;91.69;100896.82;108084;1254;72465;-65
2024/02/26 02:54:09;;;;;;;;;;;;;;;4.66;91.75;100886.08;108102;1254;70872;-66
2024/02/26 02:56:37;;;;;;;;;;;;;;;4.64;91.80;100881.57;108063;1254;60378;-65
2024/02/26 02:59:04;;;;;;;;;;;;;;;4.62;91.74;100882.64;107976;1254;61200;-65
2024/02/26 03:01:32;;;;;;;;;;;;;;;4.59;91.74;100880.48;108060;1254;74588;-65
2024/02/26 03:04:00;;;;;;;;;;;;;;;4.57;91.91;100883.23;107941;1254;71501;-64
2024/02/26 03:06:29;;;;;;;;;;;;;;;4.56;92.07;100884.33;108041;1254;72681;-65
2024/02/26 03:08:57;;;;;;;;;;;;;;;4.55;92.09;100878.23;108081;1254;60981;-66
2024/02/26 03:11:26;;;;;;;;;;;;;;;4.56;92.16;100885.35;108081;1254;61110;-66
2024/02/26 03:13:54;;;;;;;;;;;;;;;4.57;92.13;100895.52;107996;1254;74612;-65
2024/02/26 03:16:21;;;;;;;;;;;;;;;4.57;92.19;100906.17;108082;1254;71468;-64
2024/02/26 03:18:49;;;;;;;;;;;;;;;4.57;92.37;100912.69;108028;1254;70442;-64
2024/02/26 03:21:17;;;;;;;;;;;;;;;4.57;92.47;100922.09;108051;1254;61266;-65
2024/02/26 03:23:45;;;;;;;;;;;;;;;4.57;92.53;100927.42;107960;1254;61470;-65
2024/02/26 03:26:14;;;;;;;;;;;;;;;4.57;92.41;100924.86;108209;1254;74633;-65
2024/02/26 03:28:42;;;;;;;;;;;;;;;4.57;92.36;100925.02;108016;1254;71444;-65
2024/02/26 03:31:10;;;;;;;;;;;;;;;4.54;92.36;100930.94;107946;1257;70457;-65
2024/02/26 03:33:38;;;;;;;;;;;;;;;4.51;92.37;100931.93;108025;1257;61097;-65
2024/02/26 03:36:07;;;;;;;;;;;;;;;4.48;92.29;100929.45;107945;1254;61267;-65
2024/02/26 03:38:35;;;;;;;;;;;;;;;4.46;92.33;100930.47;107966;1254;74686;-66
2024/02/26 03:41:03;;;;;;;;;;;;;;;4.48;92.46;100932.69;107951;1253;72521;-66
2024/02/26 03:43:30;;;;;;;;;;;;;;;4.53;92.34;100932.89;108144;1254;71478;-66
2024/02/26 03:45:58;;;;;;;;;;;;;;;4.52;92.34;100936.06;108182;1253;61218;-65
2024/02/26 03:48:25;;;;;;;;;;;;;;;4.50;92.22;100939.04;108112;1254;61073;-63
2024/02/26 03:50:53;;;;;;;;;;;;;;;4.50;92.24;100938.88;108124;1254;74578;-66
2024/02/26 03:53:21;;;;;;;;;;;;;;;4.50;91.96;100941.56;108163;1258;72768;-65
2024/02/26 03:55:49;;;;;;;;;;;;;;;4.46;91.70;100941.90;108092;1254;71457;-65
2024/02/26 03:58:16;;;;;;;;;;;;;;;4.43;91.62;100942.80;108028;1255;59979;-66
2024/02/26 04:00:47;;;;;;;;;;;;;;;4.40;91.59;100934.92;108039;1254;61473;-65
2024/02/26 04:03:15;;;;;;;;;;;;;;;4.39;91.54;100929.95;108031;1254;74687;-65
2024/02/26 04:05:43;;;;;;;;;;;;;;;4.40;91.20;100925.59;107951;1254;71846;-66
2024/02/26 04:08:11;;;;;;;;;;;;;;;4.38;90.96;100924.02;108107;1254;71400;-66
2024/02/26 04:10:39;;;;;;;;;;;;;;;4.36;90.99;100920.80;108057;1254;61093;-66
2024/02/26 04:13:07;;;;;;;;;;;;;;;4.35;91.05;100919.71;108023;1254;61297;-66
2024/02/26 04:15:35;;;;;;;;;;;;;;;4.34;91.02;100915.97;108099;1254;73465;-66
2024/02/26 04:18:03;;;;;;;;;;;;;;;4.32;91.04;100912.40;108046;1254;71349;-66
2024/02/26 04:20:30;;;;;;;;;;;;;;;4.29;90.96;100911.75;108023;1254;72632;-66
2024/02/26 04:22:58;;;;;;;;;;;;;;;4.26;91.04;100908.30;108002;1256;59657;-66
2024/02/26 04:25:26;;;;;;;;;;;;;;;4.21;91.30;100911.07;108055;1254;61736;-66
2024/02/26 04:27:56;;;;;;;;;;;;;;;4.17;91.61;100912.54;108093;1254;74450;-66
2024/02/26 04:30:23;;;;;;;;;;;;;;;4.14;92.02;100907.49;107954;1254;75015;-66
2024/02/26 04:32:52;;;;;;;;;;;;;;;4.11;92.35;100904.29;108049;1254;71351;-65
2024/02/26 04:35:19;;;;;;;;;;;;;;;4.10;92.58;100899.69;108065;1258;61186;-65
2024/02/26 04:37:48;;;;;;;;;;;;;;;4.10;92.80;100894.70;108051;1254;61026;-65
2024/02/26 04:40:17;;;;;;;;;;;;;;;4.12;92.87;100896.25;108099;1254;74099;-65
2024/02/26 04:42:44;;;;;;;;;;;;;;;4.11;92.99;100893.27;108294;1254;71091;-65
2024/02/26 04:45:12;;;;;;;;;;;;;;;4.07;92.90;100888.31;107988;1256;71362;-66
2024/02/26 04:47:40;;;;;;;;;;;;;;;4.05;93.08;100888.20;108005;1256;61103;-66
2024/02/26 04:50:08;;;;;;;;;;;;;;;4.02;93.44;100887.73;107940;1254;61234;-65
2024/02/26 04:52:36;;;;;;;;;;;;;;;4.03;93.72;100888.85;108024;1254;74688;-65
2024/02/26 04:55:04;;;;;;;;;;;;;;;4.04;94.11;100883.80;108156;1254;71562;-66
2024/02/26 04:57:32;;;;;;;;;;;;;;;4.04;94.22;100877.73;108008;1257;71277;-65
2024/02/26 05:00:00;;;;;;;;;;;;;;;4.06;94.52;100876.41;108037;1256;61307;-67
2024/02/26 05:02:30;;;;;;;;;;;;;;;4.09;94.51;100875.66;108124;1254;61081;-66
2024/02/26 05:04:57;;;;;;;;;;;;;;;4.12;94.50;100877.77;107842;1254;73457;-65
2024/02/26 05:07:25;;;;;;;;;;;;;;;4.13;94.54;100877.98;108055;1254;71268;-66
2024/02/26 05:09:53;;;;;;;;;;;;;;;4.13;94.54;100876.96;108046;1254;72726;-66
2024/02/26 05:12:20;;;;;;;;;;;;;;;4.12;94.83;100879.98;108053;1254;61222;-65
2024/02/26 05:14:48;;;;;;;;;;;;;;;4.13;95.02;100880.01;108054;1254;61232;-66
2024/02/26 05:17:16;;;;;;;;;;;;;;;4.14;95.20;100884.52;108111;1254;74622;-66
2024/02/26 05:19:44;;;;;;;;;;;;;;;4.14;95.32;100888.17;108017;1259;71616;-66
2024/02/26 05:22:12;;;;;;;;;;;;;;;4.16;95.59;100889.89;108040;1256;74669;-66
2024/02/26 05:24:40;;;;;;;;;;;;;;;4.19;95.76;100893.71;107962;1255;59824;-68
2024/02/26 05:27:08;;;;;;;;;;;;;;;4.22;95.83;100893.94;108082;1254;61112;-67
2024/02/26 05:29:35;;;;;;;;;;;;;;;4.25;95.68;100893.98;108010;1254;74665;-66
2024/02/26 05:32:04;;;;;;;;;;;;;;;4.27;95.74;100894.42;108098;1254;71576;-66
2024/02/26 05:34:32;;;;;;;;;;;;;;;4.29;95.93;100893.45;107998;1256;72339;-65
2024/02/26 05:37:00;;;;;;;;;;;;;;;4.32;96.06;100898.52;108016;1254;61238;-65
2024/02/26 05:39:27;;;;;;;;;;;;;;;4.37;95.92;100902.41;107914;1254;61228;-65
2024/02/26 05:41:55;;;;;;;;;;;;;;;4.41;95.80;100908.39;108107;1254;73864;-65
2024/02/26 05:44:23;;;;;;;;;;;;;;;4.43;95.51;100915.33;108152;1254;71460;-65
2024/02/26 05:46:50;;;;;;;;;;;;;;;4.46;95.28;100918.63;108001;1254;71485;-64
2024/02/26 05:49:18;;;;;;;;;;;;;;;4.49;95.13;100922.97;107941;1254;61231;-68
2024/02/26 05:51:46;;;;;;;;;;;;;;;4.52;94.69;100924.88;108044;1254;61123;-66
2024/02/26 05:54:13;;;;;;;;;;;;;;;4.52;94.23;100928.91;108107;1254;73456;-65
2024/02/26 05:56:42;;;;;;;;;;;;;;;4.53;93.85;100931.19;108120;1254;71502;-65
2024/02/26 05:59:10;;;;;;;;;;;;;;;4.52;93.60;100934.23;108315;1257;72869;-65
2024/02/26 06:01:38;;;;;;;;;;;;;;;4.52;93.46;100936.19;108003;1256;60150;-66
2024/02/26 06:04:05;;;;;;;;;;;;;;;4.51;93.29;100941.20;108004;1254;61095;-66
2024/02/26 06:06:34;;;;;;;;;;;;;;;4.50;93.13;100939.86;108003;1255;73475;-66
2024/02/26 06:09:02;;;;;;;;;;;;;;;4.46;93.06;100939.91;108047;1254;71270;-66
2024/02/26 06:11:32;;;;;;;;;;;;;;;4.47;93.23;100942.88;108068;1257;71426;-66
2024/02/26 06:14:00;;;;;;;;;;;;;;;4.47;93.58;100942.11;108019;1254;61204;-66
2024/02/26 06:16:31;;;;;;;;;;;;;;;4.50;93.65;100944.66;108048;1258;59993;-66
2024/02/26 06:19:00;;;;;;;;;;;;;;;4.54;93.38;100952.34;107980;1257;74702;-66
2024/02/26 06:21:28;;;;;;;;;;;;;;;4.55;93.24;100954.41;107986;1256;72693;-66
2024/02/26 06:23:56;;;;;;;;;;;;;;;4.58;93.18;100951.40;107996;1257;72680;-66
2024/02/26 06:26:23;;;;;;;;;;;;;;;4.58;93.14;100955.27;108102;1254;61115;-66
2024/02/26 06:28:52;;;;;;;;;;;;;;;4.59;92.92;100958.48;108009;1254;61115;-65
2024/02/26 06:31:21;;;;;;;;;;;;;;;4.60;92.52;100959.36;108011;1254;73590;-66
2024/02/26 06:33:49;;;;;;;;;;;;;;;4.59;92.00;100961.45;108119;1254;71623;-66
2024/02/26 06:36:17;;;;;;;;;;;;;;;4.61;91.89;100958.48;108098;1254;71181;-65
2024/02/26 06:38:44;;;;;;;;;;;;;;;4.61;91.27;100962.63;108075;1256;61243;-66
2024/02/26 06:41:12;;;;;;;;;;;;;;;4.59;90.72;100960.59;108072;1256;61128;-65
2024/02/26 06:43:40;;;;;;;;;;;;;;;4.57;90.43;100963.89;108042;1254;73715;-65
2024/02/26 06:46:07;;;;;;;;;;;;;;;4.56;90.44;100964.66;108041;1255;72199;-66
2024/02/26 06:48:36;;;;;;;;;;;;;;;4.57;90.28;100964.70;108033;1257;71487;-66
2024/02/26 06:51:04;;;;;;;;;;;;;;;4.55;90.14;100966.33;107986;1254;61094;-65
2024/02/26 06:53:32;;;;;;;;;;;;;;;4.53;90.31;100966.80;108042;1256;61552;-66
2024/02/26 06:56:00;;;;;;;;;;;;;;;4.52;90.50;100963.20;107989;1254;74647;-68
2024/02/26 06:58:28;;;;;;;;;;;;;;;4.51;90.61;100964.06;108043;1254;73572;-65
2024/02/26 07:00:57;;;;;;;;;;;;;;;4.52;91.03;100963.66;108076;1259;73452;-65
2024/02/26 07:03:25;;;;;;;;;;;;;;;4.59;91.25;100962.95;108179;1254;61418;-66
2024/02/26 07:05:53;;;;;;;;;;;;;;;4.65;91.47;100961.59;108015;1253;60180;-65
2024/02/26 07:08:21;;;;;;;;;;;;;;;4.69;91.46;100961.05;107975;1255;76900;-65
2024/02/26 07:10:49;;;;;;;;;;;;;;;4.76;91.56;100960.10;108103;1257;75345;-67
2024/02/26 07:13:16;;;;;;;;;;;;;;;4.87;91.64;100962.30;108024;1257;72864;-66
2024/02/26 07:15:44;;;;;;;;;;;;;;;5.00;91.66;100964.48;108097;1254;61255;-65
2024/02/26 07:18:12;;;;;;;;;;;;;;;5.08;90.62;100965.35;108148;1254;61972;-65
2024/02/26 07:20:40;;;;;;;;;;;;;;;5.14;90.34;100960.68;107996;1254;74395;-65
2024/02/26 07:23:08;;;;;;;;;;;;;;;5.19;89.59;100959.11;108011;1257;73237;-66
2024/02/26 07:25:36;;;;;;;;;;;;;;;5.21;88.90;100957.98;108030;1256;74928;-65
2024/02/26 07:28:04;;;;;;;;;;;;;;;5.17;88.31;100951.42;107838;1257;205478;-66
2024/02/26 07:30:31;;;;;;;;;;;;;;;5.13;87.99;100949.32;108059;1254;61972;-65
2024/02/26 07:32:59;;;;;;;;;;;;;;;5.16;88.52;100946.09;108016;1254;76965;-66
2024/02/26 07:35:28;;;;;;;;;;;;;;;5.27;88.80;100945.02;108093;1254;75054;-65
2024/02/26 07:37:55;;;;;;;;;;;;;;;5.35;88.55;100946.11;108143;1254;71447;-66
2024/02/26 07:40:23;;;;;;;;;;;;;;;5.41;88.03;100948.43;108160;1254;60276;-67
2024/02/26 07:42:51;;;;;;;;;;;;;;;5.45;87.55;100945.37;107960;1254;61191;-66
2024/02/26 07:45:20;;;;;;;;;;;;;;;5.49;87.30;100947.05;108112;1254;75210;-65
2024/02/26 07:47:51;;;;;;;;;;;;;;;5.54;87.66;100940.70;108117;1254;74612;-65
2024/02/26 07:50:21;;;;;;;;;;;;;;;5.63;87.80;100935.70;108116;1254;73756;-66
2024/02/26 07:52:51;;;;;;;;;;;;;;;5.72;86.95;100937.02;108099;1254;61086;-66
2024/02/26 07:55:22;;;;;;;;;;;;;;;5.83;86.45;100941.22;108017;1254;61132;-66
2024/02/26 07:57:57;;;;;;;;;;;;;;;5.90;85.22;100946.76;108027;1257;75085;-66
2024/02/26 08:01:02;;;;;;;;;;;;;;;5.95;84.49;100951.56;107812;1257;71651;-66
2024/02/26 08:03:30;;;;;;;;;;;;;;;5.96;84.13;100948.05;107995;1257;73411;-66
2024/02/26 08:05:58;;;;;;;;;;;;;;;6.00;84.11;100948.05;107954;1257;61090;-66
2024/02/26 08:08:26;;;;;;;;;;;;;;;6.05;84.19;100948.54;107938;1256;60835;-66
2024/02/26 08:10:53;;;;;;;;;;;;;;;6.17;83.88;100947.79;107904;1257;76866;-66
2024/02/26 08:13:21;;;;;;;;;;;;;;;6.28;82.95;100946.00;107850;1257;73305;-65
2024/02/26 08:15:49;;;;;;;;;;;;;;;6.33;82.45;100944.78;107885;1256;75072;-65
2024/02/26 08:18:16;;;;;;;;;;;;;;;6.41;82.19;100944.53;107806;1257;61403;-68
2024/02/26 08:20:45;;;;;;;;;;;;;;;6.50;81.67;100947.69;107891;1257;61276;-67
2024/02/26 08:23:12;;;;;;;;;;;;;;;6.57;80.91;100944.97;107933;1257;74488;-67
2024/02/26 08:25:40;;;;;;;;;;;;;;;6.62;80.36;100942.52;107869;1257;73250;-66
2024/02/26 08:28:08;;;;;;;;;;;;;;;6.69;80.03;100939.95;107730;1257;74925;-66
2024/02/26 08:30:35;;;;;;;;;;;;;;;6.72;79.44;100938.61;107880;1256;63281;-69
2024/02/26 08:33:04;;;;;;;;;;;;;;;6.68;78.67;100935.58;107928;1254;61182;-67
2024/02/26 08:35:31;;;;;;;;;;;;;;;6.64;78.68;100940.55;108063;1254;74845;-65
2024/02/26 08:37:59;;;;;;;;;;;;;;;6.66;79.04;100938.88;108067;1259;74181;-67
2024/02/26 08:40:27;;;;;;;;;;;;;;;6.73;78.79;100940.96;108020;1254;73053;-66
2024/02/26 08:42:55;;;;;;;;;;;;;;;6.76;78.06;100941.50;108062;1254;61421;-65
2024/02/26 08:45:23;;;;;;;;;;;;;;;6.73;77.57;100940.76;108069;1254;61109;-66
2024/02/26 08:47:54;;;;;;;;;;;;;;;6.72;77.36;100936.52;108122;1254;76911;-66
2024/02/26 08:50:21;;;;;;;;;;;;;;;6.74;77.07;100938.17;108081;1255;72345;-66
2024/02/26 08:52:50;;;;;;;;;;;;;;;6.76;77.02;100935.00;107960;1254;73067;-64
2024/02/26 08:55:18;;;;;;;;;;;;;;;6.78;76.97;100931.40;108074;1254;63122;-66
2024/02/26 08:57:47;;;;;;;;;;;;;;;6.86;77.21;100927.27;108048;1253;61933;-64
2024/02/26 09:00:17;;;;;;;;;;;;;;;6.96;77.16;100920.17;108147;1257;76795;-65
2024/02/26 09:02:49;;;;;;;;;;;;;;;7.09;77.13;100923.16;108058;1254;75212;-67
2024/02/26 09:05:17;;;;;;;;;;;;;;;7.23;76.51;100926.08;108172;1256;72011;-66
2024/02/26 09:07:46;;;;;;;;;;;;;;;7.35;75.68;100929.59;107942;1254;61333;-66
2024/02/26 09:10:17;;;;;;;;;;;;;;;7.47;75.36;100929.53;108007;1259;62037;-65
2024/02/26 09:12:45;;;;;;;;;;;;;;;7.67;74.91;100926.14;107933;1260;73528;-66
2024/02/26 09:15:12;;;;;;;;;;;;;;;7.84;73.61;100927.50;108100;1254;75083;-65
2024/02/26 09:17:40;;;;;;;;;;;;;;;8.01;73.44;100924.77;107985;1259;75038;-65
2024/02/26 09:20:09;;;;;;;;;;;;;;;8.17;72.40;100920.89;107899;1254;61277;-65
2024/02/26 09:22:37;;;;;;;;;;;;;;;8.26;70.91;100921.52;108109;1253;62012;-66
2024/02/26 09:25:06;;;;;;;;;;;;;;;8.31;70.08;100918.59;108077;1254;74842;-66
2024/02/26 09:27:34;;;;;;;;;;;;;;;8.38;69.61;100913.45;108079;1254;71207;-66
2024/02/26 09:30:05;;;;;;;;;;;;;;;8.43;68.55;100912.76;107944;1257;73504;-66
2024/02/26 09:32:32;;;;;;;;;;;;;;;8.42;67.79;100913.34;107963;1256;61230;-65
2024/02/26 09:35:00;;;;;;;;;;;;;;;8.44;67.61;100914.96;107949;1254;61164;-65
2024/02/26 09:37:28;;;;;;;;;;;;;;;8.50;67.39;100916.14;108065;1254;74984;-66
2024/02/26 09:39:56;;;;;;;;;;;;;;;8.52;66.79;100914.36;108039;1254;72661;-66
2024/02/26 09:42:25;;;;;;;;;;;;;;;8.50;66.55;100917.13;108144;1258;74900;-66
2024/02/26 09:44:56;;;;;;;;;;;;;;;8.53;66.16;100915.52;108015;1254;61583;-65
2024/02/26 09:47:24;;;;;;;;;;;;;;;8.52;65.80;100913.79;108094;1254;61115;-67
2024/02/26 09:49:52;;;;;;;;;;;;;;;8.55;65.59;100916.08;108101;1255;74420;-67
2024/02/26 09:52:19;;;;;;;;;;;;;;;8.56;65.19;100913.62;108101;1254;74168;-66
2024/02/26 09:54:48;;;;;;;;;;;;;;;8.57;64.90;100912.80;108189;1254;73643;-65
2024/02/26 09:57:17;;;;;;;;;;;;;;;8.59;64.62;100912.69;108066;1257;61425;-65
2024/02/26 09:59:44;;;;;;;;;;;;;;;8.58;64.50;100909.23;108050;1256;61369;-66
2024/02/26 10:02:13;;;;;;;;;;;;;;;8.59;64.46;100906.21;107960;1253;76864;-67
2024/02/26 10:04:41;;;;;;;;;;;;;;;8.63;64.26;100908.17;108059;1256;74975;-66
2024/02/26 10:07:13;;;;;;;;;;;;;;;8.68;64.05;100907.31;107984;1257;73160;-67
2024/02/26 10:09:41;;;;;;;;;;;;;;;8.73;63.49;100903.53;107923;1256;61275;-66
2024/02/26 10:12:10;;;;;;;;;;;;;;;8.74;63.03;100902.26;107952;1257;61125;-66
2024/02/26 10:14:38;;;;;;;;;;;;;;;8.78;62.74;100904.27;108021;1254;73575;-66
2024/02/26 10:17:08;;;;;;;;;;;;;;;8.82;62.19;100903.27;108019;1257;72128;-65
2024/02/26 10:19:37;;;;;;;;;;;;;;;8.88;62.36;100901.95;108020;1254;74862;-67
2024/02/26 10:22:06;;;;;;;;;;;;;;;8.95;62.05;100893.14;107994;1257;60542;-65
2024/02/26 10:24:36;;;;;;;;;;;;;;;9.01;61.23;100892.08;107980;1255;61100;-66
2024/02/26 10:27:04;;;;;;;;;;;;;;;9.03;60.93;100892.38;108119;1254;76759;-66
2024/02/26 10:29:33;;;;;;;;;;;;;;;9.02;60.87;100889.31;108139;1253;72939;-66
2024/02/26 10:32:01;;;;;;;;;;;;;;;9.06;61.05;100887.68;108040;1254;73048;-67
2024/02/26 10:34:28;;;;;;;;;;;;;;;9.12;60.52;100888.43;107999;1257;60191;-66
2024/02/26 10:36:56;;;;;;;;;;;;;;;9.14;59.50;100886.45;107986;1255;61114;-66
2024/02/26 10:39:26;;;;;;;;;;;;;;;9.12;59.56;100889.65;107982;1254;75178;-66
2024/02/26 10:41:54;;;;;;;;;;;;;;;9.13;59.56;100883.89;107910;1254;73006;-67
2024/02/26 10:44:21;;;;;;;;;;;;;;;9.15;59.66;100885.20;108034;1254;72805;-65
2024/02/26 10:46:49;;;;;;;;;;;;;;;9.16;59.81;100882.44;108048;1254;61484;-66
2024/02/26 10:49:19;;;;;;;;;;;;;;;9.17;59.79;100880.64;108019;1254;62109;-66
2024/02/26 10:51:58;;;;;;;;;;;;;;;9.20;59.82;100877.80;107979;1255;74975;-66
2024/02/26 10:54:27;;;;;;;;;;;;;;;9.22;59.58;100877.75;108041;1254;72049;-66
2024/02/26 10:56:56;;;;;;;;;;;;;;;9.27;59.79;100872.08;107993;1254;74863;-66
2024/02/26 10:59:24;;;;;;;;;;;;;;;9.32;59.47;100874.24;107991;1257;61311;-66
2024/02/26 11:01:52;;;;;;;;;;;;;;;9.35;58.87;100878.67;108046;1254;62010;-65
2024/02/26 11:04:20;;;;;;;;;;;;;;;9.39;58.39;100873.71;108029;1255;72558;-66
2024/02/26 11:06:48;;;;;;;;;;;;;;;9.43;58.19;100869.68;108075;1257;75024;-65
2024/02/26 11:09:16;;;;;;;;;;;;;;;9.49;58.00;100870.58;108029;1257;73047;-67
2024/02/26 11:11:44;;;;;;;;;;;;;;;9.55;58.20;100867.48;108034;1254;60388;-67
2024/02/26 11:14:13;;;;;;;;;;;;;;;9.65;58.20;100870.02;108074;1254;61814;-68
2024/02/26 11:16:42;;;;;;;;;;;;;;;9.77;57.96;100872.14;108036;1257;75526;-66
2024/02/26 11:19:11;;;;;;;;;;;;;;;9.89;57.82;100876.15;107992;1261;74480;-65
2024/02/26 11:21:41;;;;;;;;;;;;;;;10.02;57.84;100870.68;107831;1256;71552;-67
2024/02/26 11:24:10;;;;;;;;;;;;;;;10.13;57.28;100867.11;108000;1257;61509;-66
2024/02/26 11:26:41;;;;;;;;;;;;;;;10.18;56.79;100867.60;108047;1257;61324;-65
2024/02/26 11:29:10;;;;;;;;;;;;;;;10.20;56.60;100863.84;108044;1258;76848;-66
2024/02/26 11:31:38;;;;;;;;;;;;;;;10.16;56.04;100864.25;108003;1260;75273;-65
2024/02/26 11:34:07;;;;;;;;;;;;;;;10.04;56.22;100864.64;107980;1259;74885;-65
2024/02/26 11:36:36;;;;;;;;;;;;;;;9.94;56.59;100862.41;108058;1260;61008;-66
2024/02/26 11:39:04;;;;;;;;;;;;;;;9.90;56.64;100862.34;108065;1256;61173;-66
2024/02/26 11:41:31;;;;;;;;;;;;;;;9.84;56.85;100863.23;108052;1260;76864;-65
2024/02/26 11:44:01;;;;;;;;;;;;;;;9.83;57.02;100861.02;108044;1257;74982;-66
2024/02/26 11:46:32;;;;;;;;;;;;;;;9.84;57.07;100862.80;108003;1254;74988;-65
2024/02/26 11:49:02;;;;;;;;;;;;;;;9.85;57.54;100857.90;108002;1254;61243;-65
2024/02/26 11:51:34;;;;;;;;;;;;;;;9.90;57.21;100855.44;108010;1253;60512;-65
2024/02/26 11:54:02;;;;;;;;;;;;;;;9.93;57.16;100850.98;108079;1254;73514;-66
2024/02/26 11:56:32;;;;;;;;;;;;;;;10.01;57.23;100847.52;108029;1254;74191;-66
2024/02/26 12:12:10;;;;;;;;;;;;;;;10.62;56.41;100849.86;108088;1254;73388;-67
2024/02/26 12:14:38;;;;;;;;;;;;;;;10.71;55.59;100850.77;107818;1262;72795;-67
2024/02/26 12:17:34;;;;;;;;;;;;;;;10.78;55.31;100848.50;107659;1263;72800;-66
2024/02/26 12:20:09;;;;;;;;;;;;;;;10.88;54.82;100846.45;107746;1260;61651;-67
2024/02/26 12:22:39;;;;;;;;;;;;;;;10.95;54.52;100850.48;107721;1258;60278;-65
2024/02/26 12:25:10;;;;;;;;;;;;;;;10.99;54.27;100852.45;107633;1263;74881;-65
2024/02/26 12:27:38;;;;;;;;;;;;;;;11.01;54.07;100854.92;107753;1258;74974;-66
2024/02/26 12:30:07;;;;;;;;;;;;;;;10.98;53.98;100851.80;107812;1259;71847;-66
2024/02/26 12:32:35;;;;;;;;;;;;;;;10.96;53.97;100855.14;107823;1260;60564;-66
2024/02/26 12:35:03;;;;;;;;;;;;;;;10.91;53.89;100853.44;107651;1257;61101;-66
2024/02/26 12:37:31;;;;;;;;;;;;;;;10.84;53.93;100859.40;107837;1257;73644;-66
2024/02/26 12:39:59;;;;;;;;;;;;;;;10.80;54.32;100857.71;107749;1262;73806;-65
2024/02/26 12:42:27;;;;;;;;;;;;;;;10.81;54.63;100863.91;107996;1257;74944;-66
2024/02/26 12:44:54;;;;;;;;;;;;;;;10.86;54.66;100859.15;107728;1257;61335;-65
2024/02/26 12:47:22;;;;;;;;;;;;;;;10.90;54.89;100856.63;108198;1254;61170;-65
2024/02/26 12:49:50;;;;;;;;;;;;;;;10.95;55.06;100856.05;108006;1254;75661;-65
2024/02/26 12:52:18;;;;;;;;;;;;;;;11.01;55.10;100854.50;108222;1254;73123;-66
2024/02/26 12:54:46;;;;;;;;;;;;;;;11.08;54.85;100858.84;107947;1256;72489;-66